Date,TemperatureHighF,TemperatureAvgF,TemperatureLowF,DewpointHighF,DewpointAvgF,DewpointLowF,HumidityHigh,HumidityAvg,HumidityLow,PressureMaxIn,PressureMinIn,WindSpeedMaxMPH,WindSpeedAvgMPH,GustSpeedMaxMPH,PrecipitationSumIn
2012-12-1,70.0,45.6,32.0,46.0,39.1,32.0,100,83,35,30.65,30.54,9,3,44,0.00
2012-12-2,71.0,51.4,37.0,54.0,46.6,37.0,100,86,53,30.62,30.49,14,5,39,0.00
2012-12-3,78.0,58.3,48.0,57.0,51.6,48.0,100,82,43,30.55,30.47,6,4,38,0.00
2012-12-4,77.0,56.4,44.0,59.0,49.8,44.0,100,82,39,30.56,30.43,11,5,37,0.00
2012-12-5,64.0,56.6,41.0,62.0,50.3,31.0,100,83,34,30.45,30.36,9,5,37,0.00
2012-12-6,57.0,43.6,34.0,37.0,31.6,-99.9,99,68,46,30.56,30.44,9,6,38,0.00
2012-12-7,52.0,48.3,46.0,50.0,42.1,35.0,100,81,61,30.46,30.27,5,3,31,0.06
2012-12-8,70.0,51.9,47.0,58.0,50.5,47.0,100,96,60,30.29,30.22,8,4,14,0.02
2012-12-9,67.0,58.1,51.0,67.0,58.1,51.0,100,100,99,30.37,30.25,10,5,43,0.03
2012-12-10,66.0,62.5,59.0,64.0,61.5,59.0,100,97,86,30.22,29.93,12,9,41,0.03
2012-12-11,63.0,53.7,43.0,63.0,43.9,28.0,100,72,41,30.39,29.96,11,8,24,0.00
2012-12-12,49.0,43.8,40.0,30.0,28.0,25.0,62,54,47,30.54,30.39,12,8,26,0.01
2012-12-13,56.0,43.0,33.0,27.0,22.6,18.0,70,46,27,30.64,30.54,12,8,26,0.01
2012-12-14,64.0,36.9,23.0,27.0,23.4,20.0,92,64,21,30.61,30.48,6,3,31,0.00
2012-12-15,61.0,44.9,32.0,33.0,26.8,22.0,83,55,25,30.50,30.34,8,4,15,0.00
2012-12-16,57.0,51.8,45.0,56.0,47.1,27.0,100,85,47,30.34,30.16,9,4,17,0.09
2012-12-17,58.0,53.8,49.0,57.0,53.1,49.0,100,97,88,30.17,29.90,10,6,25,0.26
2012-12-18,61.0,51.8,34.0,54.0,39.5,25.0,99,68,34,30.16,29.89,13,7,33,0.01
2012-12-19,67.0,45.8,32.0,37.0,32.2,26.0,91,64,28,30.35,30.14,8,4,32,0.01
2012-12-20,57.0,46.8,35.0,57.0,41.1,32.0,99,82,59,30.36,29.77,16,8,40,0.31
2012-12-21,48.0,41.0,36.0,44.0,25.0,18.0,85,53,41,30.09,29.78,18,11,37,0.28
2012-12-22,57.0,39.7,29.0,19.0,15.8,10.0,57,39,17,30.35,30.09,17,9,37,0.00
2012-12-23,57.0,38.4,23.0,28.0,19.1,14.0,90,51,20,30.38,30.26,8,4,14,0.00
2012-12-24,47.0,44.3,42.0,47.0,39.2,26.0,99,83,49,30.27,30.13,6,4,21,0.30
2012-12-25,57.0,48.1,42.0,46.0,42.8,40.0,99,83,57,30.34,30.17,10,4,40,0.01
2012-12-26,50.0,42.2,36.0,44.0,40.0,33.0,99,92,75,30.25,29.71,17,9,44,1.30
2012-12-27,53.0,39.0,31.0,33.0,27.9,23.0,93,67,40,30.31,29.90,9,6,20,0.01
2012-12-28,46.0,35.2,25.0,31.0,26.2,23.0,98,71,47,30.42,30.24,7,3,12,0.00
2012-12-29,54.0,41.2,35.0,40.0,32.0,18.0,99,72,46,30.24,29.94,16,8,36,0.16
2012-12-30,50.0,36.8,27.0,23.0,17.9,14.0,80,48,26,30.62,30.24,13,7,35,0.01
2012-12-31,53.0,38.8,23.0,26.0,23.0,19.0,93,58,28,30.61,30.35,10,5,21,0.00